Latest Weather Observations for Hobart

IDT60801

Issued at 8:01 am EDT Tuesday 23 December 2014 (issued every 30 minutes, with the page automatically refreshed every 10 minutes)

About weather observations | Map of weather stations | Latest weather observations for TAS | Other Formats
Station Details ID: 094029 Name: HOBART (ELLERSLIE ROAD) Lat: -42.89 Lon: 147.33 Height: 50.5 m
Data from the previous 72 hours. | See also: Recent months at Hobart
Date/Time
EDT
Temp
°C
App
Temp
°C
Dew
Point
Rel
Hum
%
Delta-T
°C
Wind Press
QNH
hPa
Press
MSL
hPa
Rain
since 9 am
mm
Dir
 
Spd
km/h
Gust
km/h
Spd
kts
Gust
kts
23/08:00am 16.9 17.4 15.5 91 0.8 SE 7 9 4 5 1005.5 1005.5 1.6
23/07:30am 16.8 18.6 15.4 91 0.8 CALM 0 0 0 0 1006.3 1006.3 1.2
23/07:00am 16.7 17.4 15.5 93 0.7 WSW 6 7 3 4 1006.5 1006.5 1.2
23/06:30am 16.5 16.8 15.1 91 0.8 NE 7 9 4 5 1006.6 1006.6 1.2
23/06:00am 16.4 16.9 15.0 91 0.8 NW 6 7 3 4 1006.2 1006.2 1.2
23/05:30am 16.5 17.0 14.9 90 0.9 NE 6 11 3 6 1006.7 1006.7 1.0
23/05:00am 16.4 16.9 15.0 91 0.8 W 6 13 3 7 1006.3 1006.3 1.0
23/04:30am 16.4 15.6 15.2 93 0.7 WSW 13 19 7 10 1006.4 1006.4 1.0
23/04:00am 16.5 16.9 15.3 93 0.7 SE 7 11 4 6 1006.8 1006.8 1.0
23/03:30am 16.6 17.7 15.6 94 0.6 S 4 6 2 3 1007.2 1007.2 1.0
23/03:00am 16.7 18.1 15.5 93 0.7 SSE 2 6 1 3 1007.9 1007.9 0.8
23/02:30am 16.8 17.2 15.4 91 0.8 SW 7 11 4 6 1008.6 1008.6 0.8
23/02:00am 17.1 17.6 15.6 91 0.9 S 7 9 4 5 1009.0 1009.0 0.4
23/01:30am 16.9 17.4 15.5 91 0.8 SSW 7 11 4 6 1009.2 1009.2 0.4
23/01:00am 17.1 17.2 15.4 90 1.0 WSW 9 11 5 6 1009.7 1009.7 0.4
23/12:30am 17.2 17.0 15.7 91 0.9 SW 11 17 6 9 1010.4 1010.3 0.4
23/12:00am 17.9 19.8 15.7 87 1.3 CALM 0 0 0 0 1011.0 1010.9 0.0
 
Date/Time
EDT
Temp
°C
App
Temp
°C
Dew
Point
Rel
Hum
%
Delta-T
°C
Wind Press
QNH
hPa
Press
MSL
hPa
Rain
since 9 am
mm
Dir
 
Spd
km/h
Gust
km/h
Spd
kts
Gust
kts
22/11:30pm 18.3 20.1 15.6 84 1.6 CALM 0 2 0 1 1011.5 1011.4 0.0
22/11:00pm 18.5 19.4 15.1 80 2.0 WNW 4 7 2 4 1011.7 1011.6 0.0
22/10:30pm 18.6 20.2 15.0 79 2.1 CALM 0 6 0 3 1012.0 1011.9 0.0
22/10:00pm 18.8 18.2 14.5 76 2.5 NNW 11 15 6 8 1012.1 1012.0 0.0
22/09:30pm 18.9 17.2 13.7 72 3.0 N 15 22 8 12 1012.2 1012.1 0.0
22/09:00pm 19.1 19.1 14.1 73 2.9 NE 7 13 4 7 1011.1 1011.0 0.0
22/08:30pm 19.7 19.2 13.8 69 3.4 NE 9 15 5 8 1011.4 1011.3 0.0
22/08:00pm 20.3 18.2 13.5 65 3.9 NNE 17 24 9 13 1011.3 1011.2 0.0
22/07:30pm 20.8 18.3 13.5 63 4.2 NE 19 26 10 14 1011.1 1011.0 0.0
22/07:00pm 21.5 19.7 13.3 59 4.7 NNE 15 20 8 11 1011.1 1011.0 0.0
22/06:30pm 21.6 21.0 13.5 60 4.7 NNE 9 15 5 8 1011.2 1011.1 0.0
22/06:00pm 21.4 21.8 13.6 61 4.5 ENE 4 7 2 4 1011.5 1011.4 0.0
22/05:30pm 21.2 20.3 13.8 62 4.3 NNE 11 22 6 12 1011.8 1011.7 0.0
22/05:00pm 21.3 21.5 12.9 58 4.8 SE 4 11 2 6 1012.1 1012.0 0.0
22/04:30pm 20.3 18.6 13.5 65 3.9 SE 15 20 8 11 1012.6 1012.5 0.0
22/04:00pm 19.8 18.0 13.3 66 3.7 SE 15 22 8 12 1013.3 1013.2 0.0
22/03:30pm 20.1 17.7 12.7 62 4.2 SSE 17 22 9 12 1013.4 1013.3 0.0
22/03:00pm 20.3 17.9 12.7 61 4.3 SE 17 22 9 12 1013.8 1013.7 0.0
22/02:30pm 19.1 17.0 12.3 64 3.8 SE 15 20 8 11 1014.2 1014.1 0.0
22/02:00pm 19.0 16.5 12.2 64 3.8 SE 17 22 9 12 1014.4 1014.3 0.0
22/01:30pm 19.4 17.1 11.6 60 4.3 SE 15 20 8 11 1014.7 1014.6 0.0
22/01:00pm 18.7 15.9 11.4 62 4.0 SE 17 22 9 12 1014.9 1014.8 0.0
22/12:30pm 18.7 15.4 11.0 61 4.2 SE 19 26 10 14 1015.0 1014.9 0.0
22/12:00pm 19.0 16.3 13.0 68 3.4 SE 19 28 10 15 1015.1 1015.0 0.0
22/11:30am 18.9 16.0 11.0 60 4.3 SE 17 22 9 12 1015.3 1015.2 0.0
22/11:00am 18.0 15.0 10.8 63 3.9 SE 17 22 9 12 1015.4 1015.3 0.0
22/10:30am 17.6 14.9 10.5 63 3.8 SE 15 19 8 10 1015.6 1015.5 0.0
22/10:00am 16.7 14.4 10.5 67 3.3 ESE 13 19 7 10 1015.9 1015.8 0.0
22/09:30am 16.0 13.5 10.9 72 2.7 ESE 15 19 8 10 1016.0 1015.9 0.0
22/09:00am 16.1 14.0 11.1 72 2.7 ESE 13 17 7 9 1016.0 1015.9 0.0
22/08:30am 16.0 14.5 10.7 71 2.8 ESE 9 13 5 7 1015.7 1015.6 0.0
22/08:00am 15.8 14.7 10.5 71 2.8 ENE 7 9 4 5 1015.6 1015.5 0.0
22/07:30am 15.4 14.6 10.9 74 2.4 N 6 9 3 5 1015.5 1015.4 0.0
22/07:00am 14.3 13.5 10.9 80 1.8 NNW 6 11 3 6 1015.4 1015.3 0.0
22/06:30am 13.5 12.6 10.8 84 1.4 NE 6 9 3 5 1015.2 1015.1 0.0
22/06:00am 12.8 12.9 10.3 85 1.3 CALM 0 0 0 0 1014.8 1014.7 0.0
22/05:30am 12.3 11.3 10.2 87 1.1 W 6 7 3 4 1014.5 1014.4 0.0
22/05:00am 12.4 12.1 10.1 86 1.2 S 2 7 1 4 1014.4 1014.3 0.0
22/04:30am 12.1 10.7 9.7 85 1.2 SW 7 11 4 6 1014.2 1014.1 0.0
22/04:00am 12.5 11.5 10.2 86 1.2 SW 6 9 3 5 1014.2 1014.1 0.0
22/03:30am 13.9 12.3 11.5 85 1.3 SE 11 17 6 9 1014.1 1014.0 0.0
22/03:00am 14.3 12.2 11.1 81 1.7 SE 13 20 7 11 1014.0 1013.9 0.0
22/02:30am 13.5 13.7 10.6 82 1.5 CALM 0 7 0 4 1013.9 1013.8 0.0
22/02:00am 13.7 12.9 11.1 84 1.4 SW 6 11 3 6 1014.1 1014.0 0.0
22/01:30am 14.3 14.0 11.3 82 1.6 WSW 4 7 2 4 1014.0 1013.9 0.0
22/01:00am 14.8 14.9 11.4 80 1.8 SSE 2 7 1 4 1014.0 1013.9 0.0
22/12:30am 15.4 16.0 11.9 79 1.9 CALM 0 6 0 3 1014.0 1013.9 0.0
22/12:00am 15.7 15.6 12.2 80 1.9 WSW 4 9 2 5 1013.9 1013.8 0.0
 
Date/Time
EDT
Temp
°C
App
Temp
°C
Dew
Point
Rel
Hum
%
Delta-T
°C
Wind Press
QNH
hPa
Press
MSL
hPa
Rain
since 9 am
mm
Dir
 
Spd
km/h
Gust
km/h
Spd
kts
Gust
kts
21/11:30pm 16.0 14.3 12.4 79 2.0 E 13 19 7 10 1013.7 1013.6 0.0
21/11:00pm 16.1 13.5 11.9 76 2.3 SE 17 22 9 12 1013.5 1013.4 0.0
21/10:30pm 16.6 14.7 10.6 67 3.2 NE 11 22 6 12 1013.5 1013.4 0.0
21/10:00pm 16.5 14.5 10.3 67 3.3 S 11 15 6 8 1013.2 1013.1 0.0
21/09:30pm 16.3 16.2 10.9 70 2.9 SW 2 11 1 6 1012.6 1012.5 0.0
21/09:00pm 16.6 16.1 10.8 68 3.1 S 4 7 2 4 1012.1 1012.0 0.0
21/08:30pm 16.7 15.9 10.9 68 3.1 ENE 6 13 3 7 1011.9 1011.8 0.0
21/08:00pm 16.9 15.8 10.5 66 3.4 ENE 7 11 4 6 1011.6 1011.5 0.0
21/07:30pm 17.2 16.3 10.7 65 3.5 S 6 17 3 9 1011.2 1011.1 0.0
21/07:00pm 17.6 14.3 9.4 58 4.3 SE 17 24 9 13 1010.8 1010.7 0.0
21/06:30pm 17.8 13.9 9.4 58 4.4 SE 20 28 11 15 1010.4 1010.3 0.0
21/06:00pm 17.7 12.4 10.0 60 4.1 ESE 28 37 15 20 1010.6 1010.5 0.0
21/05:30pm 18.8 13.4 9.6 55 4.9 SE 28 37 15 20 1010.0 1010.0 0.0
21/05:00pm 18.8 13.0 10.7 59 4.4 SE 32 41 17 22 1009.7 1009.7 0.0
21/04:30pm 22.2 17.7 9.9 45 6.7 S 24 37 13 20 1009.3 1009.3 0.0
21/04:00pm 23.8 21.2 9.5 40 7.8 S 13 20 7 11 1008.9 1008.9 0.0
21/03:30pm 25.9 21.5 7.2 30 9.9 NW 20 33 11 18 1008.8 1008.8 0.0
21/03:00pm 26.0 22.1 7.1 30 10.0 NW 17 26 9 14 1008.8 1008.8 0.0
21/02:30pm 24.3 20.5 7.4 34 8.9 WNW 17 28 9 15 1009.1 1009.1 0.0
21/02:00pm 24.4 20.6 7.6 34 8.9 WNW 17 24 9 13 1009.6 1009.6 0.0
21/01:30pm 23.6 18.9 6.0 32 9.0 WNW 20 32 11 17 1010.5 1010.4 0.0
21/01:00pm 23.4 19.7 6.5 33 8.7 NNW 15 22 8 12 1010.6 1010.5 0.0
21/12:30pm 22.9 19.3 6.6 35 8.4 NNW 15 22 8 12 1010.8 1010.7 0.0
21/12:00pm 21.2 17.3 7.2 40 7.2 NNW 17 26 9 14 1011.2 1011.1 0.0
21/11:30am 21.4 16.3 7.5 40 7.2 N 24 33 13 18 1011.8 1011.7 0.0
21/11:00am 20.6 15.6 7.9 44 6.6 N 24 35 13 19 1011.9 1011.8 0.0
21/10:30am 19.2 14.4 7.2 45 6.1 N 22 33 12 18 1012.6 1012.5 0.0
21/10:00am 17.8 13.5 7.8 52 5.1 N 20 30 11 16 1013.4 1013.3 0.0
21/09:30am 17.0 13.0 8.2 56 4.5 N 19 26 10 14 1013.7 1013.6 0.0
21/09:00am 16.3 12.2 8.7 60 3.9 NNW 20 28 11 15 1014.0 1013.9 0.0
21/08:30am 15.1 12.4 8.8 66 3.2 NNW 13 20 7 11 1014.1 1014.0 0.0
21/08:00am 13.8 11.5 8.9 72 2.5 NNW 11 15 6 8 1014.0 1013.9 0.0
21/07:30am 13.5 11.2 9.0 74 2.3 NNW 11 13 6 7 1014.4 1014.3 0.0
21/07:00am 13.4 11.1 9.1 75 2.2 NNW 11 17 6 9 1014.5 1014.4 0.0
21/06:30am 12.8 12.5 8.8 76 2.0 CALM 0 0 0 0 1014.6 1014.5 0.0
21/06:00am 12.4 10.4 8.8 79 1.8 WSW 9 13 5 7 1015.5 1015.4 0.0
21/05:30am 13.0 12.7 8.6 74 2.2 CALM 0 6 0 3 1015.1 1015.0 0.0
21/05:00am 12.9 12.2 8.5 74 2.2 N 2 7 1 4 1014.6 1014.5 0.0
21/04:30am 13.3 11.6 8.3 72 2.5 N 7 9 4 5 1014.2 1014.1 0.0
21/04:00am 13.3 11.8 8.5 72 2.4 NE 6 9 3 5 1014.3 1014.2 0.0
21/03:30am 13.3 11.7 8.7 73 2.3 NE 7 9 4 5 1014.3 1014.2 0.0
21/03:00am 13.3 11.9 8.7 73 2.3 NNE 6 9 3 5 1014.5 1014.4 0.0
21/02:30am 13.2 11.6 8.8 74 2.2 NE 7 11 4 6 1014.9 1014.8 0.0
21/02:00am 13.3 11.4 8.9 74 2.2 NNE 9 13 5 7 1015.2 1015.1 0.0
21/01:30am 13.4 11.9 9.1 75 2.2 NE 7 9 4 5 1015.6 1015.5 0.0
21/01:00am 13.4 11.5 9.1 75 2.2 NE 9 13 5 7 1015.9 1015.8 0.0
21/12:30am 13.6 11.6 8.6 72 2.5 ESE 9 15 5 8 1016.1 1016.0 0.0
21/12:00am 13.6 11.2 8.6 72 2.5 E 11 15 6 8 1016.1 1016.0 0.0
 
Date/Time
EDT
Temp
°C
App
Temp
°C
Dew
Point
Rel
Hum
%
Delta-T
°C
Wind Press
QNH
hPa
Press
MSL
hPa
Rain
since 9 am
mm
Dir
 
Spd
km/h
Gust
km/h
Spd
kts
Gust
kts
20/11:30pm 13.7 11.8 9.0 73 2.4 ENE 9 15 5 8 1016.3 1016.2 0.0
20/11:00pm 13.7 11.3 8.7 72 2.5 ENE 11 15 6 8 1016.2 1016.1 0.0
20/10:30pm 13.7 11.9 8.1 69 2.8 SE 7 13 4 7 1016.4 1016.3 0.0
20/10:00pm 13.7 12.0 8.3 70 2.7 SE 7 13 4 7 1016.3 1016.2 0.0
20/09:30pm 13.8 11.0 8.4 70 2.7 SSE 13 19 7 10 1016.0 1015.9 0.0
20/09:00pm 14.2 11.4 8.7 69 2.8 SE 13 20 7 11 1015.7 1015.6 0.0
20/08:30pm 14.5 10.4 8.8 68 2.9 SE 20 30 11 16 1015.3 1015.2 0.0
20/08:00pm 15.2 10.4 8.7 65 3.3 SE 24 33 13 18 1014.9 1014.8 0.0
20/07:30pm 15.5 10.0 9.3 66 3.2 E 28 37 15 20 1014.4 1014.3 0.0
20/07:00pm 16.2 10.3 9.0 62 3.7 ESE 30 39 16 21 1014.0 1013.9 0.0
20/06:30pm 17.1 11.9 8.8 58 4.3 ESE 26 37 14 20 1013.5 1013.4 0.0
20/06:20pm 16.8 11.3 9.3 61 3.9 ESE 28 41 15 22 1013.3 1013.2 0.0
20/06:00pm 17.8 13.7 8.7 55 4.7 ENE 20 32 11 17 1013.0 1012.9 0.0
20/05:30pm 19.0 15.4 8.4 50 5.5 E 17 26 9 14 1012.8 1012.7 0.0
20/05:05pm 17.4 12.1 10.0 62 3.9 ENE 28 48 15 26 1012.8 1012.7 0.0
20/05:00pm 17.9 14.2 10.2 60 4.1 E 20 35 11 19 1012.8 1012.7 0.0
20/04:42pm 18.1 13.4 9.1 55 4.7 E 24 48 13 26 1012.6 1012.5 0.0
20/04:30pm 21.5 15.3 4.3 32 8.4 SSW 26 41 14 22 1012.4 1012.3 0.0
20/04:00pm 21.1 15.6 4.2 33 8.2 SW 22 35 12 19 1012.2 1012.1 0.0
20/03:46pm 20.5 13.8 3.5 32 8.1 SSW 28 46 15 25 1012.0 1011.9 0.0
20/03:30pm 20.7 14.0 3.5 32 8.2 SSW 28 41 15 22 1012.0 1011.9 0.0
20/03:00pm 20.1 14.8 3.2 32 8.0 SSW 20 33 11 18 1012.2 1012.1 0.0
20/02:30pm 20.5 15.6 4.1 34 7.9 SW 19 30 10 16 1012.3 1012.2 0.0
20/02:00pm 20.8 15.9 4.9 35 7.8 SW 20 32 11 17 1012.3 1012.2 0.0
20/01:31pm 19.8 13.1 5.7 39 7.0 SW 30 48 16 26 1012.2 1012.1 0.0
20/01:30pm 19.6 12.5 5.3 39 7.0 SW 32 48 17 26 1012.2 1012.1 0.0
20/01:22pm 20.6 15.1 6.0 38 7.3 SW 24 48 13 26 1012.2 1012.1 0.0
20/01:00pm 21.7 16.2 4.0 31 8.6 WSW 22 39 12 21 1012.1 1012.0 0.0
20/12:30pm 21.7 16.6 4.3 32 8.5 WSW 20 44 11 24 1011.9 1011.8 0.0
20/12:00pm 19.3 13.0 4.0 36 7.3 WSW 26 48 14 26 1012.1 1012.0 0.0
20/11:30am 20.2 14.1 4.8 36 7.5 SW 26 39 14 21 1011.8 1011.7 0.0
20/11:00am 18.4 16.3 8.3 51 5.2 NNE 9 20 5 11 1012.0 1011.9 0.0
20/10:30am 19.4 15.1 8.0 47 5.9 SW 20 32 11 17 1012.0 1011.9 0.0
20/10:00am 18.1 13.9 8.4 53 5.0 SW 20 32 11 17 1011.9 1011.8 0.0
20/09:30am 15.3 12.9 11.4 77 2.1 NNW 15 22 8 12 1012.1 1012.0 0.0
20/09:00am 15.9 12.3 10.0 68 3.1 NNW 19 28 10 15 1011.7 1011.6 0.0
20/08:30am 16.7 13.2 10.3 66 3.4 NW 19 30 10 16 1011.5 1011.4 0.0

Other Formats:

Comma delimited format used in spreadsheet applications
http://www.bom.gov.au/fwo/IDT60801/IDT60801.94970.axf

JavaScript Object Notation format (JSON) in row-major order
http://www.bom.gov.au/fwo/IDT60801/IDT60801.94970.json